createdAt,value
2018-10-04T00:00:24.925Z,21.10
2018-10-04T00:01:02.515Z,21.10
2018-10-04T00:01:39.836Z,21.10
2018-10-04T00:02:17.358Z,21.10
2018-10-04T00:02:58.010Z,21.10
2018-10-04T00:03:35.509Z,21.10
2018-10-04T00:04:12.979Z,21.10
2018-10-04T00:04:50.382Z,21.10
2018-10-04T00:05:27.740Z,21.10
2018-10-04T00:06:05.212Z,21.20
2018-10-04T00:06:42.682Z,21.10
2018-10-04T00:07:20.072Z,21.10
2018-10-04T00:07:57.485Z,21.10
2018-10-04T00:08:34.834Z,21.10
2018-10-04T00:09:12.392Z,21.10
2018-10-04T00:09:49.721Z,21.10
2018-10-04T00:10:26.915Z,21.10
2018-10-04T00:11:04.212Z,21.10
2018-10-04T00:11:41.660Z,21.10
2018-10-04T00:12:19.104Z,21.10
2018-10-04T00:12:56.545Z,21.10
2018-10-04T00:13:33.904Z,21.10
2018-10-04T00:14:11.321Z,21.10
2018-10-04T00:14:48.685Z,21.10
2018-10-04T00:15:26.174Z,21.10
2018-10-04T00:16:03.567Z,21.10
2018-10-04T00:16:41.021Z,21.10
2018-10-04T00:17:18.507Z,21.10
2018-10-04T00:17:55.948Z,21.10
2018-10-04T00:18:33.397Z,21.10
2018-10-04T00:19:10.900Z,21.10
2018-10-04T00:19:48.220Z,21.10
2018-10-04T00:20:25.587Z,21.10
2018-10-04T00:21:02.972Z,21.10
2018-10-04T00:21:40.428Z,21.10
2018-10-04T00:22:17.885Z,21.10
2018-10-04T00:22:55.199Z,21.10
2018-10-04T00:23:32.666Z,21.10
2018-10-04T00:24:10.150Z,21.10
2018-10-04T00:24:47.600Z,21.10
2018-10-04T00:25:25.031Z,21.10
2018-10-04T00:26:02.442Z,21.10
2018-10-04T00:26:39.800Z,21.10
2018-10-04T00:27:17.100Z,21.10
2018-10-04T00:27:54.516Z,21.10
2018-10-04T00:28:31.907Z,21.10
2018-10-04T00:29:09.225Z,21.10
2018-10-04T00:29:46.632Z,21.10
2018-10-04T00:30:23.826Z,21.10
2018-10-04T00:31:01.033Z,21.10
2018-10-04T00:31:38.335Z,21.10
2018-10-04T00:32:15.633Z,21.10
2018-10-04T00:32:52.880Z,21.10
2018-10-04T00:33:30.422Z,21.10
2018-10-04T00:34:07.723Z,21.10
2018-10-04T00:34:45.272Z,21.10
2018-10-04T00:35:22.586Z,21.10
2018-10-04T00:36:00.085Z,21.10
2018-10-04T00:36:37.674Z,21.10
2018-10-04T00:37:15.164Z,21.10
2018-10-04T00:37:52.540Z,21.10
2018-10-04T00:38:29.993Z,21.10
2018-10-04T00:39:07.294Z,21.10
2018-10-04T00:39:44.632Z,21.10
2018-10-04T00:40:21.985Z,21.10
2018-10-04T00:40:59.382Z,21.10
2018-10-04T00:41:36.660Z,21.10
2018-10-04T00:42:14.044Z,21.10
2018-10-04T00:42:51.506Z,21.10
2018-10-04T00:43:29.079Z,21.10
2018-10-04T00:44:06.393Z,21.10
2018-10-04T00:44:43.654Z,21.10
2018-10-04T00:45:20.962Z,21.10
2018-10-04T00:45:58.437Z,21.10
2018-10-04T00:46:35.725Z,21.10
2018-10-04T00:47:13.079Z,21.10
2018-10-04T00:47:50.284Z,21.10
2018-10-04T00:48:27.494Z,21.10
2018-10-04T00:49:04.744Z,21.40
2018-10-04T00:49:42.145Z,21.10
2018-10-04T00:50:19.292Z,21.10
2018-10-04T00:50:56.620Z,21.10
2018-10-04T00:51:34.023Z,21.10
2018-10-04T00:52:11.331Z,21.10
2018-10-04T00:52:48.805Z,21.10
2018-10-04T00:53:26.302Z,21.10
2018-10-04T00:54:03.764Z,21.10
2018-10-04T00:54:41.109Z,20.80
2018-10-04T00:55:18.697Z,21.10
2018-10-04T00:55:56.087Z,21.10
2018-10-04T00:56:33.896Z,21.10
2018-10-04T00:57:11.237Z,21.10
2018-10-04T00:57:48.626Z,21.10
2018-10-04T00:58:26.102Z,21.10
2018-10-04T00:59:03.313Z,21.10
2018-10-04T00:59:40.747Z,21.10
2018-10-04T01:00:18.094Z,21.10
2018-10-04T01:00:55.404Z,21.10
2018-10-04T01:01:32.827Z,21.10
2018-10-04T01:02:10.281Z,21.10
2018-10-04T01:03:30.369Z,21.10
2018-10-04T01:04:07.581Z,21.10
2018-10-04T01:04:45.053Z,21.10
2018-10-04T01:05:22.392Z,21.10
2018-10-04T01:05:59.853Z,21.10
2018-10-04T01:06:37.032Z,21.10
2018-10-04T01:07:14.201Z,21.10
2018-10-04T01:07:51.444Z,21.10
2018-10-04T01:08:32.591Z,21.10
2018-10-04T01:09:09.905Z,21.10
2018-10-04T01:09:47.283Z,21.10
2018-10-04T01:10:24.649Z,21.10
2018-10-04T01:11:02.047Z,21.10
2018-10-04T01:11:39.244Z,21.10
2018-10-04T01:12:16.522Z,21.10
2018-10-04T01:12:53.902Z,21.10
2018-10-04T01:13:31.283Z,21.10
2018-10-04T01:14:51.151Z,21.10
2018-10-04T01:15:28.524Z,21.10
2018-10-04T01:16:05.844Z,21.10
2018-10-04T01:16:43.181Z,21.10
2018-10-04T01:17:20.582Z,21.10
2018-10-04T01:17:58.021Z,21.10
2018-10-04T01:18:35.651Z,21.10
2018-10-04T01:19:16.481Z,21.10
2018-10-04T01:19:53.893Z,21.10
2018-10-04T01:20:31.418Z,21.10
2018-10-04T01:21:08.922Z,21.10
2018-10-04T01:21:46.280Z,21.10
2018-10-04T01:22:23.721Z,21.10
2018-10-04T01:23:01.061Z,21.10
2018-10-04T01:23:38.228Z,21.10
2018-10-04T01:24:19.179Z,21.00
2018-10-04T01:24:56.424Z,21.10
2018-10-04T01:25:33.884Z,21.10
2018-10-04T01:26:11.393Z,21.10
2018-10-04T01:26:48.573Z,21.10
2018-10-04T01:27:25.844Z,21.10
2018-10-04T01:28:03.416Z,21.10
2018-10-04T01:28:40.633Z,21.10
2018-10-04T01:29:18.023Z,21.10
2018-10-04T01:29:55.273Z,21.10
2018-10-04T01:30:32.508Z,21.10
2018-10-04T01:31:09.924Z,21.10
2018-10-04T01:31:47.413Z,21.10
2018-10-04T01:32:24.825Z,21.10
2018-10-04T01:33:02.112Z,21.10
2018-10-04T01:33:39.331Z,21.10
2018-10-04T01:34:16.605Z,21.10
2018-10-04T01:34:53.963Z,21.10
2018-10-04T01:35:31.419Z,21.10
2018-10-04T01:36:08.843Z,21.10
2018-10-04T01:36:46.204Z,21.10
2018-10-04T01:37:23.594Z,21.00
2018-10-04T01:38:01.011Z,21.10
2018-10-04T01:38:38.274Z,21.10
2018-10-04T01:39:15.684Z,21.00
2018-10-04T01:39:56.754Z,21.10
2018-10-04T01:40:34.044Z,21.10
2018-10-04T01:41:11.246Z,21.10
2018-10-04T01:41:48.705Z,21.10
2018-10-04T01:42:26.145Z,21.10
2018-10-04T01:43:03.735Z,21.10
2018-10-04T01:43:41.012Z,21.10
2018-10-04T01:44:18.565Z,21.10
2018-10-04T01:44:55.985Z,21.00
2018-10-04T01:45:33.584Z,21.10
2018-10-04T01:46:10.916Z,21.00
2018-10-04T01:46:48.325Z,21.10
2018-10-04T01:47:25.899Z,21.10
2018-10-04T01:48:03.395Z,21.10
2018-10-04T01:48:40.670Z,21.10
2018-10-04T01:49:17.896Z,21.10
2018-10-04T01:49:55.195Z,21.10
2018-10-04T01:50:32.325Z,21.10
2018-10-04T01:51:09.581Z,21.10
2018-10-04T01:51:46.864Z,21.00
2018-10-04T01:52:24.294Z,21.10
2018-10-04T01:53:01.652Z,21.10
2018-10-04T01:53:39.185Z,21.00
2018-10-04T01:54:16.589Z,21.10
2018-10-04T01:54:53.764Z,21.10
2018-10-04T01:55:30.966Z,21.00
2018-10-04T01:56:08.191Z,21.10
2018-10-04T01:56:45.544Z,21.10
2018-10-04T01:57:22.974Z,21.00
2018-10-04T01:58:00.338Z,21.00
2018-10-04T01:58:37.823Z,21.00
2018-10-04T01:59:15.405Z,21.10
2018-10-04T01:59:52.629Z,21.00
2018-10-04T02:01:12.603Z,21.00
2018-10-04T02:01:50.088Z,21.00
2018-10-04T02:02:27.615Z,21.10
2018-10-04T02:03:04.907Z,21.00
2018-10-04T02:03:42.115Z,21.10
2018-10-04T02:04:19.543Z,21.00
2018-10-04T02:04:56.974Z,21.10
2018-10-04T02:05:34.344Z,21.10
2018-10-04T02:06:11.807Z,21.10
2018-10-04T02:06:49.343Z,21.00
2018-10-04T02:07:26.728Z,21.10
2018-10-04T02:08:03.915Z,21.00
2018-10-04T02:08:44.449Z,21.10
2018-10-04T02:09:21.718Z,21.00
2018-10-04T02:09:59.155Z,21.10
2018-10-04T02:10:36.633Z,21.00
2018-10-04T02:11:13.993Z,21.00
2018-10-04T02:11:51.333Z,21.00
2018-10-04T02:12:28.820Z,21.00
2018-10-04T02:13:06.328Z,21.00
2018-10-04T02:13:47.588Z,21.10
2018-10-04T02:14:25.024Z,21.10
2018-10-04T02:15:02.240Z,21.00
2018-10-04T02:15:39.676Z,21.10
2018-10-04T02:16:17.042Z,21.00
2018-10-04T02:16:54.198Z,21.10
2018-10-04T02:17:31.563Z,21.00
2018-10-04T02:18:08.738Z,21.00
2018-10-04T02:18:49.561Z,21.00
2018-10-04T02:19:26.836Z,21.10
2018-10-04T02:20:04.194Z,21.00
2018-10-04T02:20:41.560Z,21.00
2018-10-04T02:21:18.996Z,21.00
2018-10-04T02:21:56.355Z,21.00
2018-10-04T02:22:33.694Z,21.00
2018-10-04T02:23:11.178Z,21.00
2018-10-04T02:24:30.042Z,21.00
2018-10-04T02:25:07.234Z,21.00
2018-10-04T02:25:44.423Z,21.10
2018-10-04T02:26:21.901Z,21.00
2018-10-04T02:26:59.275Z,21.00
2018-10-04T02:27:36.546Z,21.00
2018-10-04T02:28:14.081Z,21.00
2018-10-04T02:28:51.454Z,21.00
2018-10-04T02:29:28.828Z,21.00
2018-10-04T02:30:06.104Z,21.00
2018-10-04T02:30:43.262Z,21.00
2018-10-04T02:31:20.792Z,21.00
2018-10-04T02:31:58.055Z,21.00
2018-10-04T02:32:35.485Z,21.00
2018-10-04T02:33:12.773Z,21.10
2018-10-04T02:33:50.204Z,21.10
2018-10-04T02:34:27.599Z,21.00
2018-10-04T02:35:05.014Z,21.00
2018-10-04T02:35:42.520Z,21.00
2018-10-04T02:36:19.972Z,21.00
2018-10-04T02:36:57.363Z,21.00
2018-10-04T02:37:34.570Z,21.10
2018-10-04T02:38:12.001Z,21.00
2018-10-04T02:38:49.439Z,21.00
2018-10-04T02:39:30.769Z,21.00
2018-10-04T02:40:08.049Z,21.00
2018-10-04T02:40:45.198Z,21.00
2018-10-04T02:41:22.528Z,21.00
2018-10-04T02:41:59.961Z,21.00
2018-10-04T02:42:37.444Z,21.00
2018-10-04T02:43:14.823Z,21.00
2018-10-04T02:43:52.120Z,21.00
2018-10-04T02:44:29.634Z,21.00
2018-10-04T02:45:07.038Z,21.00
2018-10-04T02:45:44.349Z,21.00
2018-10-04T02:46:21.773Z,21.00
2018-10-04T02:46:59.236Z,21.00
2018-10-04T02:47:36.555Z,21.00
2018-10-04T02:48:14.033Z,21.00
2018-10-04T02:48:51.456Z,21.00
2018-10-04T02:49:28.896Z,21.00
2018-10-04T02:50:06.338Z,21.00
2018-10-04T02:50:43.768Z,21.00
2018-10-04T02:51:21.181Z,21.00
2018-10-04T02:51:58.459Z,21.00
2018-10-04T02:52:35.667Z,21.00
2018-10-04T02:53:13.046Z,21.00
2018-10-04T02:53:50.345Z,21.00
2018-10-04T02:54:27.945Z,21.00
2018-10-04T02:55:05.197Z,21.20
2018-10-04T02:55:46.257Z,21.00
2018-10-04T02:56:23.411Z,21.00
2018-10-04T02:57:00.670Z,21.00
2018-10-04T02:57:38.060Z,21.00
2018-10-04T02:58:15.317Z,21.00
2018-10-04T02:58:52.804Z,21.00
2018-10-04T02:59:30.378Z,21.00
2018-10-04T03:00:07.656Z,21.00
2018-10-04T03:00:48.748Z,21.00
2018-10-04T03:01:25.946Z,21.00
2018-10-04T03:02:03.406Z,21.00
2018-10-04T03:02:40.901Z,21.00
2018-10-04T03:03:18.187Z,21.00
2018-10-04T03:03:55.444Z,21.00
2018-10-04T03:04:32.661Z,21.00
2018-10-04T03:05:10.070Z,21.00
2018-10-04T03:05:47.355Z,21.00
2018-10-04T03:06:28.648Z,21.00
2018-10-04T03:07:05.827Z,21.00
2018-10-04T03:07:43.114Z,21.00
2018-10-04T03:08:20.667Z,21.00
2018-10-04T03:08:58.158Z,21.00
2018-10-04T03:09:35.535Z,21.00
2018-10-04T03:10:13.013Z,21.00
2018-10-04T03:10:50.434Z,21.00
2018-10-04T03:11:31.364Z,21.00
2018-10-04T03:12:08.544Z,21.00
2018-10-04T03:12:45.987Z,21.00
2018-10-04T03:13:23.443Z,21.00
2018-10-04T03:14:00.904Z,21.00
2018-10-04T03:14:38.444Z,21.00
2018-10-04T03:15:15.727Z,21.00
2018-10-04T03:15:53.183Z,21.00
2018-10-04T03:16:30.372Z,21.00
2018-10-04T03:17:07.613Z,21.00
2018-10-04T03:17:45.182Z,21.00
2018-10-04T03:18:22.471Z,21.00
2018-10-04T03:18:59.939Z,21.00
2018-10-04T03:19:37.354Z,21.00
2018-10-04T03:20:14.871Z,21.00
2018-10-04T03:20:52.296Z,21.00
2018-10-04T03:21:29.676Z,21.00
2018-10-04T03:22:06.874Z,21.00
2018-10-04T03:22:44.305Z,21.00
2018-10-04T03:23:21.642Z,21.00
2018-10-04T03:23:59.193Z,21.00
2018-10-04T03:24:36.433Z,21.00
2018-10-04T03:25:13.802Z,21.00
2018-10-04T03:25:51.236Z,21.00
2018-10-04T03:26:28.722Z,21.00
2018-10-04T03:27:06.115Z,21.00
2018-10-04T03:27:43.377Z,21.00
2018-10-04T03:28:20.787Z,21.00
2018-10-04T03:28:57.944Z,21.00
2018-10-04T03:29:35.377Z,21.00
2018-10-04T03:30:12.726Z,21.00
2018-10-04T03:30:50.109Z,21.00
2018-10-04T03:31:27.491Z,21.00
2018-10-04T03:32:04.850Z,21.00
2018-10-04T03:32:42.424Z,21.00
2018-10-04T03:33:19.729Z,21.00
2018-10-04T03:33:57.171Z,21.00
2018-10-04T03:34:34.587Z,21.00
2018-10-04T03:35:12.056Z,21.00
2018-10-04T03:35:49.559Z,21.00
2018-10-04T03:36:26.949Z,21.00
2018-10-04T03:37:04.433Z,21.00
2018-10-04T03:37:41.791Z,21.00
2018-10-04T03:38:19.150Z,21.00
2018-10-04T03:38:56.692Z,21.00
2018-10-04T03:39:34.035Z,21.00
2018-10-04T03:40:11.401Z,21.00
2018-10-04T03:40:48.810Z,21.00
2018-10-04T03:41:26.104Z,21.00
2018-10-04T03:42:03.571Z,21.00
2018-10-04T03:42:40.941Z,21.00
2018-10-04T03:43:18.329Z,21.00
2018-10-04T03:43:55.764Z,21.00
2018-10-04T03:44:33.000Z,21.00
2018-10-04T03:45:10.264Z,21.00
2018-10-04T03:45:47.849Z,21.00
2018-10-04T03:46:25.072Z,21.00
2018-10-04T03:47:02.482Z,21.00
2018-10-04T03:47:39.810Z,21.00
2018-10-04T03:48:17.250Z,21.00
2018-10-04T03:48:54.779Z,21.00
2018-10-04T03:49:32.103Z,21.00
2018-10-04T03:50:09.356Z,21.00
2018-10-04T03:50:46.810Z,21.00
2018-10-04T03:51:24.309Z,21.00
2018-10-04T03:52:01.811Z,21.00
2018-10-04T03:52:39.181Z,21.00
2018-10-04T03:53:16.719Z,21.00
2018-10-04T03:53:54.124Z,21.00
2018-10-04T03:54:31.629Z,21.00
2018-10-04T03:55:09.220Z,21.00
2018-10-04T03:55:46.497Z,21.00
2018-10-04T03:56:23.664Z,21.00
2018-10-04T03:57:00.900Z,21.00
2018-10-04T03:57:38.516Z,21.00
2018-10-04T03:58:16.013Z,21.00
2018-10-04T03:58:53.522Z,21.00
2018-10-04T03:59:30.756Z,21.00
2018-10-04T04:00:08.258Z,21.00
2018-10-04T04:00:45.652Z,21.00
2018-10-04T04:01:23.121Z,21.00
2018-10-04T04:02:00.498Z,21.00
2018-10-04T04:02:37.829Z,21.00
2018-10-04T04:03:15.359Z,21.00
2018-10-04T04:03:52.736Z,21.00
2018-10-04T04:04:30.169Z,21.00
2018-10-04T04:05:07.699Z,21.00
2018-10-04T04:05:44.969Z,21.00
2018-10-04T04:06:22.454Z,21.00
2018-10-04T04:06:59.939Z,21.00
2018-10-04T04:07:37.467Z,21.00
2018-10-04T04:08:14.959Z,21.00
2018-10-04T04:08:52.226Z,21.00
2018-10-04T04:09:29.531Z,20.90
2018-10-04T04:10:07.044Z,21.00
2018-10-04T04:10:44.488Z,21.00
2018-10-04T04:12:08.448Z,21.00
2018-10-04T04:12:45.850Z,21.00
2018-10-04T04:13:23.322Z,21.00
2018-10-04T04:14:00.669Z,21.00
2018-10-04T04:14:38.089Z,21.00
2018-10-04T04:15:15.446Z,21.00
2018-10-04T04:15:52.859Z,21.00
2018-10-04T04:16:30.087Z,21.00
2018-10-04T04:17:07.299Z,21.00
2018-10-04T04:17:44.618Z,21.00
2018-10-04T04:18:22.126Z,21.00
2018-10-04T04:19:00.340Z,21.00
2018-10-04T04:19:37.759Z,21.00
2018-10-04T04:20:14.960Z,21.00
2018-10-04T04:20:52.478Z,21.00
2018-10-04T04:21:29.787Z,21.00
2018-10-04T04:22:07.045Z,21.00
2018-10-04T04:22:44.433Z,21.00
2018-10-04T04:23:21.964Z,21.00
2018-10-04T04:23:59.412Z,21.00
2018-10-04T04:24:36.744Z,21.00
2018-10-04T04:25:13.955Z,21.00
2018-10-04T04:25:51.218Z,21.00
2018-10-04T04:26:28.480Z,21.00
2018-10-04T04:27:05.710Z,21.00
2018-10-04T04:27:42.999Z,21.00
2018-10-04T04:28:20.326Z,21.00
2018-10-04T04:28:57.706Z,21.00
2018-10-04T04:29:35.172Z,21.00
2018-10-04T04:30:12.570Z,21.00
2018-10-04T04:30:49.978Z,21.00
2018-10-04T04:31:27.269Z,21.00
2018-10-04T04:32:04.699Z,21.00
2018-10-04T04:32:41.784Z,21.00
2018-10-04T04:33:19.010Z,21.00
2018-10-04T04:33:56.181Z,21.00
2018-10-04T04:34:33.447Z,21.00
2018-10-04T04:35:14.456Z,21.00
2018-10-04T04:35:51.718Z,21.00
2018-10-04T04:36:28.973Z,21.00
2018-10-04T04:37:06.430Z,21.00
2018-10-04T04:37:43.930Z,21.00
2018-10-04T04:38:21.398Z,21.00
2018-10-04T04:38:58.784Z,21.00
2018-10-04T04:39:36.270Z,21.00
2018-10-04T04:40:56.910Z,21.00
2018-10-04T04:41:34.313Z,21.00
2018-10-04T04:42:11.705Z,21.00
2018-10-04T04:42:49.039Z,21.00
2018-10-04T04:43:26.300Z,21.00
2018-10-04T04:44:03.908Z,21.00
2018-10-04T04:44:41.290Z,21.00
2018-10-04T04:46:01.570Z,21.00
2018-10-04T04:46:39.061Z,21.00
2018-10-04T04:47:16.501Z,21.00
2018-10-04T04:47:53.626Z,21.00
2018-10-04T04:48:30.979Z,21.00
2018-10-04T04:49:08.249Z,21.00
2018-10-04T04:49:45.739Z,21.00
2018-10-04T04:50:22.989Z,21.00
2018-10-04T04:51:00.450Z,21.00
2018-10-04T04:51:38.082Z,21.00
2018-10-04T04:52:15.432Z,21.00
2018-10-04T04:52:52.985Z,21.00
2018-10-04T04:53:30.314Z,21.00
2018-10-04T04:54:07.891Z,21.00
2018-10-04T04:54:45.220Z,21.00
2018-10-04T04:55:22.659Z,21.00
2018-10-04T04:56:03.849Z,21.00
2018-10-04T04:56:41.180Z,21.00
2018-10-04T04:57:18.442Z,21.00
2018-10-04T04:57:55.688Z,21.00
2018-10-04T04:58:33.117Z,21.00
2018-10-04T04:59:10.604Z,21.00
2018-10-04T04:59:47.829Z,21.00
2018-10-04T05:00:25.046Z,21.00
2018-10-04T05:01:06.442Z,21.00
2018-10-04T05:01:43.751Z,21.00
2018-10-04T05:02:21.168Z,21.00
2018-10-04T05:02:58.593Z,21.00
2018-10-04T05:03:35.897Z,21.00
2018-10-04T05:04:13.269Z,21.00
2018-10-04T05:04:50.682Z,21.00
2018-10-04T05:05:28.180Z,21.00
2018-10-04T05:06:05.677Z,21.00
2018-10-04T05:06:43.164Z,21.00
2018-10-04T05:07:20.451Z,21.00
2018-10-04T05:07:57.929Z,21.00
2018-10-04T05:08:35.138Z,21.00
2018-10-04T05:09:12.538Z,21.00
2018-10-04T05:09:49.716Z,21.00
2018-10-04T05:10:27.138Z,21.00
2018-10-04T05:11:04.566Z,21.00
2018-10-04T05:11:41.744Z,21.00
2018-10-04T05:12:18.977Z,21.00
2018-10-04T05:12:56.420Z,21.00
2018-10-04T05:13:33.817Z,21.00
2018-10-04T05:14:11.208Z,21.00
2018-10-04T05:14:48.610Z,21.00
2018-10-04T05:15:26.049Z,21.00
2018-10-04T05:16:03.522Z,21.00
2018-10-04T05:16:40.815Z,21.00
2018-10-04T05:17:18.136Z,21.00
2018-10-04T05:17:55.560Z,21.00
2018-10-04T05:18:33.097Z,21.00
2018-10-04T05:19:10.389Z,21.00
2018-10-04T05:19:47.800Z,21.00
2018-10-04T05:20:25.028Z,21.00
2018-10-04T05:21:02.231Z,21.00
2018-10-04T05:21:39.497Z,21.00
2018-10-04T05:22:17.064Z,21.00
2018-10-04T05:22:54.508Z,21.00
2018-10-04T05:23:31.904Z,21.00
2018-10-04T05:24:09.361Z,21.00
2018-10-04T05:24:46.608Z,21.00
2018-10-04T05:25:23.857Z,21.00
2018-10-04T05:26:01.336Z,21.00
2018-10-04T05:26:38.818Z,21.00
2018-10-04T05:27:16.217Z,21.00
2018-10-04T05:27:53.504Z,21.00
2018-10-04T05:28:30.980Z,21.00
2018-10-04T05:29:08.492Z,21.00
2018-10-04T05:29:45.868Z,21.00
2018-10-04T05:30:23.168Z,21.00
2018-10-04T05:31:00.739Z,21.00
2018-10-04T05:31:37.994Z,21.00
2018-10-04T05:32:15.194Z,21.00
2018-10-04T05:32:52.345Z,21.00
2018-10-04T05:33:29.589Z,21.00
2018-10-04T05:34:07.005Z,21.00
2018-10-04T05:34:44.269Z,21.00
2018-10-04T05:35:21.780Z,21.00
2018-10-04T05:35:59.168Z,21.00
2018-10-04T05:36:36.465Z,21.00
2018-10-04T05:37:13.874Z,21.00
2018-10-04T05:37:51.200Z,21.00
2018-10-04T05:38:28.483Z,21.00
2018-10-04T05:39:06.050Z,21.00
2018-10-04T05:39:43.529Z,21.00
2018-10-04T05:40:20.927Z,21.00
2018-10-04T05:40:58.142Z,21.00
2018-10-04T05:41:35.580Z,21.00
2018-10-04T05:42:12.990Z,21.00
2018-10-04T05:42:50.147Z,21.00
2018-10-04T05:43:27.639Z,21.00
2018-10-04T05:44:04.922Z,20.30
2018-10-04T05:44:42.347Z,21.00
2018-10-04T05:45:19.777Z,21.00
2018-10-04T05:45:57.231Z,21.00
2018-10-04T05:46:34.640Z,21.00
2018-10-04T05:47:11.840Z,21.00
2018-10-04T05:47:49.109Z,21.00
2018-10-04T05:48:26.510Z,21.00
2018-10-04T05:49:03.959Z,21.00
2018-10-04T05:49:41.401Z,21.00
2018-10-04T05:50:18.731Z,21.00
2018-10-04T05:50:56.010Z,21.00
2018-10-04T05:51:33.193Z,21.00
2018-10-04T05:52:10.474Z,21.00
2018-10-04T05:52:47.885Z,21.00
2018-10-04T05:53:25.231Z,21.00
2018-10-04T05:54:02.580Z,22.20
2018-10-04T05:54:39.971Z,21.00
2018-10-04T05:55:17.522Z,21.00
2018-10-04T05:55:55.100Z,21.00
2018-10-04T05:56:32.611Z,21.00
2018-10-04T05:57:10.046Z,21.00
2018-10-04T05:57:47.483Z,21.00
2018-10-04T05:58:24.916Z,21.00
2018-10-04T05:59:02.507Z,21.00
2018-10-04T05:59:39.955Z,21.00
2018-10-04T06:00:17.321Z,21.00
2018-10-04T06:01:36.472Z,21.00
2018-10-04T06:02:13.821Z,21.00
2018-10-04T06:02:51.106Z,21.00
2018-10-04T06:03:28.501Z,21.00
2018-10-04T06:04:05.794Z,21.00
2018-10-04T06:04:43.135Z,21.00
2018-10-04T06:05:20.442Z,21.00
2018-10-04T06:05:57.804Z,21.00
2018-10-04T06:06:38.171Z,21.00
2018-10-04T06:07:15.432Z,21.00
2018-10-04T06:07:52.584Z,21.00
2018-10-04T06:08:29.814Z,21.00
2018-10-04T06:09:07.192Z,21.00
2018-10-04T06:09:44.545Z,21.00
2018-10-04T06:10:21.774Z,21.00
2018-10-04T06:10:59.216Z,21.00
2018-10-04T06:11:39.938Z,21.00
2018-10-04T06:12:17.352Z,21.00
2018-10-04T06:12:54.810Z,21.00
2018-10-04T06:13:32.271Z,21.00
2018-10-04T06:14:09.668Z,21.00
2018-10-04T06:14:47.014Z,21.00
2018-10-04T06:15:24.513Z,21.00
2018-10-04T06:16:01.847Z,21.00
2018-10-04T06:17:21.877Z,21.00
2018-10-04T06:17:59.159Z,21.00
2018-10-04T06:18:36.719Z,21.00
2018-10-04T06:19:13.964Z,21.00
2018-10-04T06:19:51.342Z,21.00
2018-10-04T06:20:28.561Z,21.00
2018-10-04T06:21:06.064Z,21.00
2018-10-04T06:21:43.570Z,21.00
2018-10-04T06:22:20.844Z,21.00
2018-10-04T06:22:58.073Z,21.00
2018-10-04T06:23:35.583Z,21.00
2018-10-04T06:24:13.047Z,21.00
2018-10-04T06:24:50.472Z,21.00
2018-10-04T06:25:27.874Z,21.00
2018-10-04T06:26:05.184Z,21.00
2018-10-04T06:26:42.683Z,21.00
2018-10-04T06:27:20.195Z,21.00
2018-10-04T06:27:57.468Z,21.00
2018-10-04T06:28:34.797Z,21.10
2018-10-04T06:29:12.004Z,21.10
2018-10-04T06:29:49.217Z,21.10
2018-10-04T06:30:26.537Z,21.10
2018-10-04T06:31:03.857Z,21.00
2018-10-04T06:31:41.125Z,21.10
2018-10-04T06:32:18.338Z,21.10
2018-10-04T06:32:55.689Z,21.10
2018-10-04T06:33:33.152Z,21.10
2018-10-04T06:34:10.562Z,21.10
2018-10-04T06:34:47.892Z,21.10
2018-10-04T06:35:25.355Z,21.00
2018-10-04T06:36:02.686Z,21.10
2018-10-04T06:36:40.005Z,21.10
2018-10-04T06:37:17.192Z,21.10
2018-10-04T06:37:54.446Z,21.10
2018-10-04T06:38:31.963Z,21.10
2018-10-04T06:39:09.273Z,21.10
2018-10-04T06:39:46.526Z,21.10
2018-10-04T06:40:23.700Z,21.10
2018-10-04T06:41:00.946Z,21.10
2018-10-04T06:41:38.227Z,21.10
2018-10-04T06:42:15.647Z,21.10
2018-10-04T06:42:53.039Z,21.10
2018-10-04T06:43:30.589Z,21.10
2018-10-04T06:44:07.931Z,21.10
2018-10-04T06:44:45.285Z,21.10
2018-10-04T06:45:22.791Z,21.10
2018-10-04T06:46:00.141Z,21.10
2018-10-04T06:46:37.640Z,21.10
2018-10-04T06:47:15.102Z,21.10
2018-10-04T06:47:52.332Z,21.10
2018-10-04T06:48:29.791Z,21.10
2018-10-04T06:49:07.174Z,21.10
2018-10-04T06:49:44.369Z,21.10
2018-10-04T06:50:21.718Z,21.20
2018-10-04T06:50:58.873Z,21.10
2018-10-04T06:51:36.351Z,21.20
2018-10-04T06:52:13.739Z,21.20
2018-10-04T06:52:51.080Z,21.20
2018-10-04T06:53:28.413Z,21.20
2018-10-04T06:54:05.651Z,21.20
2018-10-04T06:54:43.160Z,21.20
2018-10-04T06:55:20.531Z,21.20
2018-10-04T06:55:57.830Z,21.20
2018-10-04T06:56:35.214Z,21.30
2018-10-04T06:57:12.595Z,21.30
2018-10-04T06:57:50.099Z,21.30
2018-10-04T06:58:27.391Z,21.30
2018-10-04T06:59:04.690Z,21.30
2018-10-04T06:59:41.967Z,21.30
2018-10-04T07:00:19.230Z,21.30
2018-10-04T07:00:56.702Z,21.30
2018-10-04T07:01:34.067Z,21.40
2018-10-04T07:02:11.594Z,21.40
2018-10-04T07:02:48.901Z,21.40
2018-10-04T07:03:26.446Z,21.40
2018-10-04T07:04:03.741Z,21.40
2018-10-04T07:04:41.265Z,21.40
2018-10-04T07:05:18.703Z,21.40
2018-10-04T07:05:56.121Z,21.40
2018-10-04T07:06:33.433Z,21.40
2018-10-04T07:07:10.875Z,21.40
2018-10-04T07:07:48.310Z,21.40
2018-10-04T07:08:25.638Z,21.40
2018-10-04T07:09:03.147Z,21.40
2018-10-04T07:09:40.489Z,21.50
2018-10-04T07:10:17.845Z,21.50
2018-10-04T07:10:55.304Z,21.50
2018-10-04T07:11:32.678Z,21.40
2018-10-04T07:12:10.038Z,21.50
2018-10-04T07:12:47.301Z,21.50
2018-10-04T07:13:24.840Z,21.50
2018-10-04T07:14:02.168Z,21.50
2018-10-04T07:14:39.310Z,21.50
2018-10-04T07:15:16.550Z,21.50
2018-10-04T07:15:53.992Z,21.50
2018-10-04T07:16:31.519Z,21.50
2018-10-04T07:17:08.861Z,21.50
2018-10-04T07:17:46.198Z,21.50
2018-10-04T07:18:23.718Z,21.50
2018-10-04T07:19:01.280Z,21.50
2018-10-04T07:19:38.557Z,21.50
2018-10-04T07:20:16.165Z,21.50
2018-10-04T07:20:53.451Z,21.50
2018-10-04T07:21:30.738Z,21.50
2018-10-04T07:22:50.881Z,21.50
2018-10-04T07:23:28.177Z,21.50
2018-10-04T07:24:05.583Z,21.50
2018-10-04T07:24:42.818Z,21.50
2018-10-04T07:25:20.294Z,21.50
2018-10-04T07:25:57.658Z,21.50
2018-10-04T07:26:35.053Z,21.50
2018-10-04T07:27:12.321Z,21.50
2018-10-04T07:27:49.698Z,21.50
2018-10-04T07:28:27.008Z,21.60
2018-10-04T07:29:04.417Z,21.50
2018-10-04T07:29:41.687Z,21.50
2018-10-04T07:30:19.090Z,21.60
2018-10-04T07:30:56.351Z,21.60
2018-10-04T07:31:33.837Z,21.60
2018-10-04T07:32:11.231Z,21.60
2018-10-04T07:32:48.601Z,21.60
2018-10-04T07:33:25.786Z,21.60
2018-10-04T07:34:03.033Z,21.60
2018-10-04T07:34:40.507Z,21.60
2018-10-04T07:35:17.917Z,21.50
2018-10-04T07:35:55.107Z,21.60
2018-10-04T07:36:32.356Z,21.60
2018-10-04T07:37:09.768Z,21.60
2018-10-04T07:37:47.188Z,21.60
2018-10-04T07:38:24.717Z,21.60
2018-10-04T07:39:02.103Z,21.60
2018-10-04T07:39:39.604Z,21.60
2018-10-04T07:40:17.108Z,21.60
2018-10-04T07:40:54.327Z,21.60
2018-10-04T07:41:31.757Z,21.60
2018-10-04T07:42:09.056Z,21.60
2018-10-04T07:42:46.647Z,21.60
2018-10-04T07:43:23.892Z,21.60
2018-10-04T07:44:01.291Z,21.60
2018-10-04T07:44:38.675Z,21.60
2018-10-04T07:45:16.011Z,21.60
2018-10-04T07:45:53.253Z,21.60
2018-10-04T07:46:30.636Z,21.60
2018-10-04T07:47:07.881Z,21.60
2018-10-04T07:47:45.263Z,21.60
2018-10-04T07:48:22.722Z,21.60
2018-10-04T07:49:42.725Z,21.60
2018-10-04T07:50:20.054Z,21.60
2018-10-04T07:50:57.289Z,21.60
2018-10-04T07:51:34.750Z,21.60
2018-10-04T07:52:12.197Z,21.60
2018-10-04T07:52:49.607Z,21.60
2018-10-04T07:53:27.126Z,21.60
2018-10-04T07:54:04.558Z,21.60
2018-10-04T07:54:42.072Z,21.60
2018-10-04T07:55:19.349Z,21.60
2018-10-04T07:55:56.908Z,21.60
2018-10-04T07:56:34.182Z,21.70
2018-10-04T07:57:11.590Z,21.70
2018-10-04T07:57:48.767Z,21.70
2018-10-04T07:58:26.217Z,21.60
2018-10-04T07:59:03.564Z,21.70
2018-10-04T07:59:40.816Z,21.70
2018-10-04T08:00:18.522Z,21.70
2018-10-04T08:00:55.747Z,21.70
2018-10-04T08:01:33.247Z,21.70
2018-10-04T08:02:10.555Z,21.70
2018-10-04T08:02:48.026Z,21.70
2018-10-04T08:03:25.463Z,21.70
2018-10-04T08:04:02.720Z,21.70
2018-10-04T08:04:40.146Z,21.70
2018-10-04T08:05:17.424Z,21.70
2018-10-04T08:05:55.038Z,21.70
2018-10-04T08:06:32.709Z,21.80
2018-10-04T08:07:09.626Z,21.70
2018-10-04T08:07:46.863Z,21.80
2018-10-04T08:08:24.323Z,21.80
2018-10-04T08:09:01.768Z,21.80
2018-10-04T08:09:39.005Z,21.80
2018-10-04T08:10:16.167Z,21.80